TimeCDT,TemperatureF,Dew PointF,Humidity,Sea Level PressureIn,VisibilityMPH,Wind Direction,Wind SpeedMPH,Gust SpeedMPH,PrecipitationIn,Events,Conditions,WindDirDegrees,DateUTC
12:15 AM,65.3,50.7,59,29.76,10.0,North,-9999.0,-,N/A,,Clear,0,2013-03-17 05:15:00
12:35 AM,64.4,50.7,61,29.75,10.0,North,-9999.0,-,N/A,,Clear,0,2013-03-17 05:35:00
12:55 AM,64.6,50.5,60,29.76,10.0,SSE,5.8,-,N/A,,Clear,150,2013-03-17 05:55:00
1:15 AM,63.5,50.9,63,29.76,10.0,SE,8.1,-,N/A,,Clear,140,2013-03-17 06:15:00
1:35 AM,64.4,51.3,62,29.76,10.0,SSE,9.2,-,N/A,,Clear,150,2013-03-17 06:35:00
1:55 AM,63.7,51.1,64,29.75,10.0,SSE,8.1,-,N/A,,Clear,150,2013-03-17 06:55:00
2:15 AM,63.9,51.8,65,29.75,10.0,SSE,9.2,16.1,N/A,,Clear,150,2013-03-17 07:15:00
2:35 AM,63.9,52.7,67,29.75,10.0,SSE,8.1,-,N/A,,Clear,150,2013-03-17 07:35:00
2:55 AM,63.5,53.6,70,29.76,10.0,SSE,9.2,-,N/A,,Clear,160,2013-03-17 07:55:00
3:15 AM,63.0,54.0,72,29.76,10.0,SSE,8.1,-,N/A,,Clear,150,2013-03-17 08:15:00
3:35 AM,63.1,54.7,74,29.76,10.0,North,-9999.0,-,N/A,,Mostly Cloudy,0,2013-03-17 08:35:00
3:55 AM,63.7,55.4,74,29.75,10.0,North,-9999.0,-,N/A,,Overcast,0,2013-03-17 08:55:00
4:15 AM,64.4,55.8,73,29.75,10.0,North,-9999.0,-,N/A,,Overcast,0,2013-03-17 09:15:00
4:35 AM,64.4,56.1,74,29.75,10.0,North,-9999.0,-,N/A,,Overcast,0,2013-03-17 09:35:00
4:55 AM,64.4,56.3,75,29.75,10.0,South,5.8,-,N/A,,Overcast,190,2013-03-17 09:55:00
5:35 AM,64.0,56.5,76,29.75,10.0,SE,6.9,-,N/A,,Overcast,140,2013-03-17 10:35:00
5:55 AM,63.9,56.8,78,29.75,10.0,SSE,5.8,-,N/A,,Overcast,150,2013-03-17 10:55:00
6:15 AM,63.7,56.8,78,29.76,10.0,SSE,5.8,-,N/A,,Overcast,150,2013-03-17 11:15:00
6:35 AM,63.7,57.2,79,29.76,10.0,SSE,8.1,-,N/A,,Overcast,150,2013-03-17 11:35:00
6:55 AM,63.5,57.2,80,29.75,10.0,SSE,6.9,-,N/A,,Overcast,160,2013-03-17 11:55:00
7:15 AM,63.5,57.2,80,29.75,10.0,SSE,9.2,-,N/A,,Overcast,160,2013-03-17 12:15:00
7:35 AM,63.5,57.4,80,29.76,10.0,SSE,11.5,-,N/A,,Overcast,150,2013-03-17 12:35:00
7:55 AM,63.1,57.4,81,29.75,10.0,SSE,9.2,-,N/A,,Overcast,150,2013-03-17 12:55:00
8:15 AM,63.5,57.7,81,29.75,10.0,SSE,10.4,-,N/A,,Overcast,150,2013-03-17 13:15:00
8:35 AM,63.9,57.9,81,29.75,10.0,SSE,8.1,-,N/A,,Overcast,160,2013-03-17 13:35:00
8:55 AM,64.4,58.1,80,29.76,10.0,SSE,9.2,-,N/A,,Overcast,160,2013-03-17 13:55:00
9:35 AM,64.9,58.5,79,29.76,10.0,North,-9999.0,-,N/A,,Overcast,0,2013-03-17 14:35:00
9:55 AM,65.8,59.0,79,29.76,10.0,North,-9999.0,-,N/A,,Overcast,0,2013-03-17 14:55:00
10:15 AM,66.4,59.2,78,29.76,10.0,North,-9999.0,-,N/A,,Overcast,0,2013-03-17 15:15:00
10:35 AM,67.1,59.4,76,29.75,10.0,North,-9999.0,-,N/A,,Overcast,0,2013-03-17 15:35:00
10:55 AM,68.0,59.4,74,29.75,10.0,North,-9999.0,-,N/A,,Overcast,0,2013-03-17 15:55:00
11:15 AM,67.6,57.4,70,29.75,10.0,NNW,8.1,-,N/A,,Overcast,330,2013-03-17 16:15:00
11:35 AM,59.9,51.4,74,29.74,10.0,NW,10.4,16.1,N/A,,Overcast,320,2013-03-17 16:35:00
11:55 AM,59.5,50.9,73,29.74,10.0,NNW,6.9,-,N/A,,Overcast,340,2013-03-17 16:55:00
12:15 PM,60.8,50.4,68,29.73,10.0,NNW,6.9,-,N/A,,Overcast,330,2013-03-17 17:15:00
12:35 PM,61.9,51.1,68,29.73,10.0,North,6.9,-,N/A,,Overcast,350,2013-03-17 17:35:00
12:55 PM,62.8,51.4,66,29.72,10.0,NW,8.1,-,N/A,,Overcast,320,2013-03-17 17:55:00
1:15 PM,64.4,52.5,65,29.71,10.0,North,-9999.0,-,N/A,,Overcast,0,2013-03-17 18:15:00
1:35 PM,65.8,52.3,62,29.72,10.0,WNW,15.0,20.7,N/A,,Overcast,290,2013-03-17 18:35:00
1:55 PM,65.3,51.6,61,29.71,10.0,NW,9.2,21.9,N/A,,Mostly Cloudy,310,2013-03-17 18:55:00
2:15 PM,64.6,50.7,61,29.71,10.0,WNW,9.2,20.7,N/A,,Mostly Cloudy,290,2013-03-17 19:15:00
2:35 PM,66.4,51.1,58,29.70,10.0,WNW,11.5,21.9,N/A,,Overcast,290,2013-03-17 19:35:00
2:55 PM,65.3,50.0,58,29.69,10.0,WNW,13.8,23.0,N/A,,Overcast,290,2013-03-17 19:55:00
3:15 PM,61.7,48.2,61,29.70,10.0,WNW,17.3,25.3,N/A,,Overcast,290,2013-03-17 20:15:00
3:35 PM,60.4,49.1,66,29.70,10.0,WNW,16.1,21.9,N/A,,Overcast,300,2013-03-17 20:35:00
3:55 PM,60.3,48.9,66,29.69,10.0,WNW,11.5,20.7,N/A,,Overcast,290,2013-03-17 20:55:00
4:15 PM,60.8,48.7,64,29.68,10.0,WNW,15.0,21.9,N/A,,Overcast,290,2013-03-17 21:15:00
4:35 PM,61.9,48.7,62,29.69,10.0,WNW,12.7,20.7,N/A,,Overcast,300,2013-03-17 21:35:00
4:55 PM,59.4,47.5,65,29.69,10.0,NW,9.2,19.6,N/A,,Overcast,320,2013-03-17 21:55:00
5:15 PM,59.7,47.3,63,29.68,10.0,West,10.4,19.6,N/A,,Overcast,280,2013-03-17 22:15:00
5:35 PM,58.8,46.8,64,29.69,10.0,NW,9.2,19.6,N/A,,Overcast,320,2013-03-17 22:35:00
5:55 PM,59.5,46.8,63,29.69,10.0,WNW,12.7,21.9,N/A,,Mostly Cloudy,290,2013-03-17 22:55:00
6:15 PM,59.4,46.8,63,29.70,10.0,NW,12.7,19.6,N/A,,Overcast,320,2013-03-17 23:15:00
6:35 PM,58.1,46.6,65,29.70,10.0,NNW,11.5,-,N/A,,Overcast,330,2013-03-17 23:35:00
6:55 PM,58.1,46.0,64,29.70,10.0,NNW,10.4,-,N/A,,Mostly Cloudy,330,2013-03-17 23:55:00
7:15 PM,57.6,45.7,65,29.70,10.0,NNW,6.9,-,N/A,,Mostly Cloudy,330,2013-03-18 00:15:00
7:35 PM,56.3,45.5,67,29.69,10.0,NNW,3.5,-,N/A,,Scattered Clouds,330,2013-03-18 00:35:00
7:55 PM,55.4,45.5,69,29.69,10.0,Calm,Calm,-,N/A,,Scattered Clouds,0,2013-03-18 00:55:00
8:15 PM,54.9,45.5,71,29.70,10.0,Calm,Calm,-,N/A,,Clear,0,2013-03-18 01:15:00
8:35 PM,54.7,45.7,72,29.70,10.0,Calm,Calm,-,N/A,,Clear,0,2013-03-18 01:35:00
8:55 PM,54.5,45.5,72,29.70,10.0,Calm,Calm,-,N/A,,Scattered Clouds,0,2013-03-18 01:55:00
9:15 PM,53.6,45.7,75,29.69,10.0,Calm,Calm,-,N/A,,Scattered Clouds,0,2013-03-18 02:15:00
9:35 PM,53.6,45.7,75,29.70,10.0,Calm,Calm,-,N/A,,Clear,0,2013-03-18 02:35:00
9:55 PM,52.0,46.0,80,29.71,10.0,NNW,3.5,-,N/A,,Clear,330,2013-03-18 02:55:00
10:15 PM,51.1,45.9,82,29.72,10.0,NNW,3.5,-,N/A,,Clear,330,2013-03-18 03:15:00
10:35 PM,50.9,45.5,82,29.73,10.0,NNW,4.6,-,N/A,,Clear,330,2013-03-18 03:35:00
10:55 PM,50.9,45.5,82,29.73,10.0,NNW,5.8,-,N/A,,Scattered Clouds,330,2013-03-18 03:55:00
11:15 PM,50.4,45.5,83,29.73,10.0,NNW,6.9,-,N/A,,Scattered Clouds,340,2013-03-18 04:15:00
11:35 PM,50.0,45.0,83,29.72,10.0,North,4.6,-,N/A,,Clear,360,2013-03-18 04:35:00
11:55 PM,49.1,45.0,86,29.71,10.0,NNE,3.5,-,N/A,,Clear,30,2013-03-18 04:55:00